Barsund — LNGJ — position and weather

sailwx.info

Track history (hours):
 
Tides and Currents Weather Stations Pressure Air Temp Water Temp Dewpoint Dewpoint Depression Visibility Wind Speed Wind Dir Waves Ship Positions

Barsund

Last reported at 2017-Nov-16 09:05 UTC. Time now 2017-Dec-18 03:28 UTC.
Position N 68°55' E 015°04'.
Warning: this ship's position is 31 days out of date.

Length 20 m; draft 3.5 m.

Type: Fishing. MMSI: 257577500.

Date/timePositionNaut miles runAvg speedWind from/ knotsBaromVisibWave heightAir tempDewpointWater temp
2017-Nov-16 09:05N 68°55' E 015°04'0 0.0
2017-Nov-16 09:00N 68°55' E 015°04'0 0.0
2017-Nov-16 08:30N 68°55' E 015°04'0 0.0
2017-Nov-16 08:00N 68°55' E 015°04'0 0.0
2017-Nov-16 07:30N 68°55' E 015°04'0 0.0
2017-Nov-16 07:00N 68°55' E 015°04'0 0.0
2017-Nov-16 06:30N 68°55' E 015°04'0 0.0
2017-Nov-16 06:00N 68°55' E 015°04'0 0.0
2017-Nov-16 05:29N 68°55' E 015°04'0 0.0
2017-Nov-16 05:00N 68°55' E 015°04'0 0.0
2017-Nov-16 04:30N 68°55' E 015°04'0 0.0
2017-Nov-16 04:00N 68°55' E 015°04'0 0.0
2017-Nov-16 03:30N 68°55' E 015°04'0 0.0
2017-Nov-16 03:00N 68°55' E 015°04'0 0.0
2017-Nov-16 02:30N 68°55' E 015°04'0 0.0
2017-Nov-16 02:00N 68°55' E 015°04'0 0.0
2017-Nov-16 01:30N 68°55' E 015°04'0 0.0
2017-Nov-16 01:00N 68°55' E 015°04'0 0.0
2017-Nov-16 00:30N 68°55' E 015°04'0 0.0
2017-Nov-15 23:59N 68°55' E 015°04'0 0.0
2017-Nov-15 23:30N 68°55' E 015°04'0 0.0
2017-Nov-15 23:00N 68°55' E 015°04'0 0.0
2017-Nov-15 22:30N 68°55' E 015°04'0 0.0
2017-Nov-15 22:00N 68°55' E 015°04'0 0.0
2017-Nov-15 21:30N 68°55' E 015°04'0 0.0
2017-Nov-15 20:59N 68°55' E 015°04'0 0.0
2017-Nov-15 20:30N 68°55' E 015°04'0 0.0
2017-Nov-15 20:00N 68°55' E 015°04'0 0.0
2017-Nov-15 19:30N 68°55' E 015°04'0 0.0
2017-Nov-15 19:00N 68°55' E 015°04'0 0.0
2017-Nov-15 18:30N 68°55' E 015°04'0 0.0
2017-Nov-15 18:00N 68°55' E 015°04'0 0.0
2017-Nov-15 17:30N 68°55' E 015°04'0 0.0
2017-Nov-15 17:00N 68°55' E 015°04'0 0.0
2017-Nov-15 16:30N 68°55' E 015°04'0 0.0
2017-Nov-15 16:00N 68°55' E 015°04'0 0.0
2017-Nov-15 15:30N 68°55' E 015°04'0 0.0
2017-Nov-15 14:59N 68°55' E 015°04'0 0.0
2017-Nov-15 14:30N 68°55' E 015°04'0 0.0
2017-Nov-15 14:00N 68°55' E 015°04'0 0.0
2017-Nov-15 13:29N 68°55' E 015°04'0 0.0
2017-Nov-15 13:00N 68°55' E 015°04'0 0.0
2017-Nov-15 12:30N 68°55' E 015°04'0 0.0
2017-Nov-15 12:00N 68°55' E 015°04'0 0.0
2017-Nov-15 11:30N 68°55' E 015°04'0 0.0
2017-Nov-15 11:00N 68°55' E 015°04'0 0.0
2017-Nov-15 10:30N 68°55' E 015°04'0 0.0
2017-Nov-15 10:00N 68°55' E 015°04'0 0.0
2017-Nov-15 09:30N 68°55' E 015°04'0 0.0
2017-Nov-15 09:00N 68°55' E 015°04'0 0.2
2017-Nov-15 08:30N 68°55' E 015°04'0 0.4
2017-Nov-15 08:00N 68°55' E 015°05'0 0.0
2017-Nov-15 07:30N 68°55' E 015°05'0 0.0
2017-Nov-15 07:00N 68°55' E 015°05'0 0.0
2017-Nov-15 06:29N 68°55' E 015°05'0 0.0
2017-Nov-15 06:00N 68°55' E 015°05'0 0.0
2017-Nov-15 05:30N 68°55' E 015°05'0 0.0
2017-Nov-15 05:00N 68°55' E 015°05'0 0.0
2017-Nov-15 04:30N 68°55' E 015°05'0 0.0
2017-Nov-15 04:00N 68°55' E 015°05'0 0.0
2017-Nov-15 03:30N 68°55' E 015°05'0 0.0
2017-Nov-15 03:00N 68°55' E 015°05'0 0.0
2017-Nov-15 02:30N 68°55' E 015°05'0 0.0
2017-Nov-15 02:00N 68°55' E 015°05'0 0.0
2017-Nov-15 01:30N 68°55' E 015°05'0 0.0
2017-Nov-15 01:00N 68°55' E 015°05'0 0.0
2017-Nov-15 00:30N 68°55' E 015°05'0 0.0
2017-Nov-15 00:00N 68°55' E 015°05'0 0.0
2017-Nov-14 23:30N 68°55' E 015°05'0 0.0
2017-Nov-14 23:00N 68°55' E 015°05'0 0.0
2017-Nov-14 22:29N 68°55' E 015°05'0 0.0
2017-Nov-14 22:00N 68°55' E 015°05'0 0.0
2017-Nov-14 21:29N 68°55' E 015°05'3 6.9
2017-Nov-14 21:00N 68°57' E 014°59'3 6.4
2017-Nov-14 20:30N 69°00' E 015°02'4 7.1
2017-Nov-14 20:00N 69°01' E 015°12'4 7.9
2017-Nov-14 19:30N 68°58' E 015°18'4 8.0
2017-Nov-14 19:00N 68°55' E 015°23'4 8.1
2017-Nov-14 18:30N 68°51' E 015°26'4 8.3
2017-Nov-14 18:00N 68°47' E 015°25'5 9.1
2017-Nov-14 17:30N 68°42' E 015°26'2 3.9
2017-Nov-14 17:00N 68°40' E 015°25'4 8.8
2017-Nov-14 16:30N 68°37' E 015°17'4 8.6
2017-Nov-14 15:59N 68°33' E 015°10'4 8.3
2017-Nov-14 15:30N 68°29' E 015°13'4 8.1
2017-Nov-14 14:59N 68°25' E 015°08'4 7.5
2017-Nov-14 14:30N 68°22' E 015°03'4 8.2
2017-Nov-14 14:00N 68°19' E 014°55'4 8.1
2017-Nov-14 13:30N 68°17' E 014°48'4 8.2
2017-Nov-14 13:00N 68°14' E 014°40'2 3.7
2017-Nov-14 12:30N 68°14' E 014°35'0 0.0
2017-Nov-14 12:00N 68°14' E 014°35'0 0.0
2017-Nov-14 11:30N 68°14' E 014°35'0 0.0
2017-Nov-14 11:00N 68°14' E 014°35'0 0.0
2017-Nov-14 10:30N 68°14' E 014°35'0 0.0
2017-Nov-14 10:00N 68°14' E 014°35'0 0.0
2017-Nov-14 09:30N 68°14' E 014°35'0 0.0
2017-Nov-14 09:00N 68°14' E 014°35'0 0.0
2017-Nov-14 08:29N 68°14' E 014°35'0 0.0
2017-Nov-14 08:00N 68°14' E 014°35'0 0.0
2017-Nov-14 07:30N 68°14' E 014°35'0 0.0
2017-Nov-14 07:00N 68°14' E 014°35'0 0.0
2017-Nov-14 06:30N 68°14' E 014°35'1 1.5
2017-Nov-14 06:00N 68°14' E 014°36'4 8.6
2017-Nov-14 05:30N 68°13' E 014°48'4 9.0
2017-Nov-14 05:00N 68°13' E 014°60'4 9.0
2017-Nov-14 04:30N 68°14' E 015°12'5 9.1
2017-Nov-14 04:00N 68°15' E 015°23'4 8.9
2017-Nov-14 03:30N 68°16' E 015°35'5 9.2
2017-Nov-14 03:00N 68°19' E 015°45'5 9.4
2017-Nov-14 02:30N 68°21' E 015°56'5 9.0
2017-Nov-14 02:00N 68°25' E 016°03'4 9.0
2017-Nov-14 01:30N 68°29' E 016°07'5 9.0
2017-Nov-14 01:00N 68°33' E 016°14'4 9.0
2017-Nov-14 00:30N 68°33' E 016°26'4 7.4
2017-Nov-14 00:00N 68°36' E 016°33'4 8.2
2017-Nov-13 23:30N 68°40' E 016°38'4 8.7
2017-Nov-13 23:00N 68°44' E 016°44'4 8.4
2017-Nov-13 22:30N 68°47' E 016°50'4 8.8
2017-Nov-13 22:00N 68°51' E 016°56'52 2.6
2017-Nov-13 02:00N 69°38' E 017°60'0 0.0
2017-Nov-13 01:30N 69°38' E 017°60'0 0.0
2017-Nov-13 01:00N 69°38' E 017°60'0 0.0
2017-Nov-13 00:30N 69°38' E 017°60'0 0.0
2017-Nov-13 00:00N 69°38' E 017°60'0 0.0
2017-Nov-12 23:30N 69°38' E 017°60'0 0.0
2017-Nov-12 23:00N 69°38' E 017°60'0 0.0
2017-Nov-12 22:29N 69°38' E 017°60'0 0.0
2017-Nov-12 22:00N 69°38' E 017°60'0 0.0
2017-Nov-12 21:30N 69°38' E 017°60'0 0.0
2017-Nov-12 21:00N 69°38' E 017°60'0 0.0
2017-Nov-12 20:30N 69°38' E 017°60'0 0.0
2017-Nov-12 20:00N 69°38' E 017°60'0 0.0
2017-Nov-12 19:30N 69°38' E 017°60'0 0.0
2017-Nov-12 19:00N 69°38' E 017°60'0 0.0
2017-Nov-12 18:30N 69°38' E 017°60'0 0.0
2017-Nov-12 18:00N 69°38' E 017°60'0 0.0
2017-Nov-12 17:29N 69°38' E 017°60'0 0.0
2017-Nov-12 17:00N 69°38' E 017°60'0 0.0
2017-Nov-12 16:30N 69°38' E 017°60'0 0.0
2017-Nov-12 16:00N 69°38' E 017°60'0 0.0
2017-Nov-12 15:30N 69°38' E 017°60'0 0.0
2017-Nov-12 15:00N 69°38' E 017°60'0 0.0
2017-Nov-12 14:30N 69°38' E 017°60'0 0.0
2017-Nov-12 14:00N 69°38' E 017°60'0 0.0
2017-Nov-12 13:30N 69°38' E 017°60'0 0.0
2017-Nov-12 13:00N 69°38' E 017°60'0 0.0
2017-Nov-12 12:30N 69°38' E 017°60'0 0.0
2017-Nov-12 12:00N 69°38' E 017°60'0 0.0
2017-Nov-12 11:30N 69°38' E 017°60'0 0.0
2017-Nov-12 11:00N 69°38' E 017°60'0 0.0
2017-Nov-12 10:30N 69°38' E 017°60'0 0.0
2017-Nov-12 10:00N 69°38' E 017°60'0 0.0
2017-Nov-12 09:30N 69°38' E 017°60'0 0.0
2017-Nov-12 09:00N 69°38' E 017°60'0 0.0
2017-Nov-12 08:30N 69°38' E 017°60'0 0.0
2017-Nov-12 08:00N 69°38' E 017°60'0 0.0
2017-Nov-12 07:30N 69°38' E 017°60'0 0.0
2017-Nov-12 07:00N 69°38' E 017°60'0 0.0
2017-Nov-12 06:30N 69°38' E 017°60'0 0.0
2017-Nov-12 06:00N 69°38' E 017°60'0 0.0
2017-Nov-12 05:29N 69°38' E 017°60'0 0.0
2017-Nov-12 05:00N 69°38' E 017°60'0 0.0
2017-Nov-12 04:30N 69°38' E 017°60'0 0.0
2017-Nov-12 04:00N 69°38' E 017°60'0 0.0
2017-Nov-12 03:30N 69°38' E 017°60'0 0.0
2017-Nov-12 03:00N 69°38' E 017°60'0 0.0
2017-Nov-12 02:30N 69°38' E 017°60'0 0.0
2017-Nov-12 02:00N 69°38' E 017°60'0 0.0
2017-Nov-12 01:30N 69°38' E 017°60'0 0.0
2017-Nov-12 00:59N 69°38' E 017°60'0 0.0
2017-Nov-12 00:30N 69°38' E 017°60'0 0.0
2017-Nov-12 00:00N 69°38' E 017°60'0 0.0
2017-Nov-11 23:30N 69°38' E 017°60'0 0.0
2017-Nov-11 23:00N 69°38' E 017°60'0 0.0
2017-Nov-11 22:30N 69°38' E 017°60'0 0.0
2017-Nov-11 22:00N 69°38' E 017°60'0 0.0
2017-Nov-11 21:30N 69°38' E 017°60'0 0.0
2017-Nov-11 21:00N 69°38' E 017°60'0 0.0
2017-Nov-11 20:30N 69°38' E 017°60'0 0.0
2017-Nov-11 20:00N 69°38' E 017°60'0 0.0
2017-Nov-11 19:30N 69°38' E 017°60'0 0.0
2017-Nov-11 19:00N 69°38' E 017°60'0 0.0
2017-Nov-11 18:30N 69°38' E 017°60'0 0.0
2017-Nov-11 18:00N 69°38' E 017°60'0 0.0
2017-Nov-11 17:30N 69°38' E 017°60'0 0.0
2017-Nov-11 17:00N 69°38' E 017°60'0 0.0
2017-Nov-11 16:30N 69°38' E 017°60'0 0.0
2017-Nov-11 16:00N 69°38' E 017°60'0 0.0
2017-Nov-11 15:30N 69°38' E 017°60'0 0.0
2017-Nov-11 15:00N 69°38' E 017°60'0 0.0
2017-Nov-11 14:30N 69°38' E 017°60'0 0.0
2017-Nov-11 14:00N 69°38' E 017°60'0 0.0
2017-Nov-11 13:30N 69°38' E 017°60'0 0.0
2017-Nov-11 13:00N 69°38' E 017°60'0 0.0
2017-Nov-11 12:30N 69°38' E 017°60'0 0.0
2017-Nov-11 12:00N 69°38' E 017°60'0 0.0
2017-Nov-11 11:30N 69°38' E 017°60'0 0.0
2017-Nov-11 11:00N 69°38' E 017°60'0 0.0
2017-Nov-11 10:30N 69°38' E 017°60'0 0.0
2017-Nov-11 10:00N 69°38' E 017°60'0 0.0
2017-Nov-11 09:30N 69°38' E 017°60'0 0.0
2017-Nov-11 08:59N 69°38' E 017°60'0 0.0
2017-Nov-11 08:30N 69°38' E 017°60'0 0.0
2017-Nov-11 08:00N 69°38' E 017°60'0 0.0
2017-Nov-11 07:30N 69°38' E 017°60'0 0.0
2017-Nov-11 06:59N 69°38' E 017°60'0 0.0
2017-Nov-11 06:30N 69°38' E 017°60'0 0.0
2017-Nov-11 06:00N 69°38' E 017°60'0 0.0
2017-Nov-11 05:30N 69°38' E 017°60'0 0.0
2017-Nov-11 05:00N 69°38' E 017°60'0 0.0
2017-Nov-11 04:30N 69°38' E 017°60'0 0.0
2017-Nov-11 04:00N 69°38' E 017°60'0 0.0
2017-Nov-11 03:30N 69°38' E 017°60'0 0.0
2017-Nov-11 03:00N 69°38' E 017°60'0 0.0
2017-Nov-11 02:30N 69°38' E 017°60'0 0.0
2017-Nov-11 02:00N 69°38' E 017°60'0 0.0
2017-Nov-11 01:30N 69°38' E 017°60'0 0.0
2017-Nov-11 01:00N 69°38' E 017°60'0 0.0
2017-Nov-11 00:30N 69°38' E 017°60'0 0.0
2017-Nov-11 00:00N 69°38' E 017°60'0 0.0
2017-Nov-10 23:30N 69°38' E 017°60'0 0.0
2017-Nov-10 23:00N 69°38' E 017°60'0 0.0
2017-Nov-10 22:30N 69°38' E 017°60'0 0.0
2017-Nov-10 22:00N 69°38' E 017°60'0 0.0
2017-Nov-10 21:30N 69°38' E 017°60'0 0.0
2017-Nov-10 21:00N 69°38' E 017°60'0 0.0
2017-Nov-10 20:30N 69°38' E 017°60'0 0.0
2017-Nov-10 20:00N 69°38' E 017°60'0 0.0
2017-Nov-10 19:29N 69°38' E 017°60'0 0.0
2017-Nov-10 19:00N 69°38' E 017°60'0 0.0
2017-Nov-10 18:30N 69°38' E 017°60'0 0.0
2017-Nov-10 18:00N 69°38' E 017°60'0 0.0
2017-Nov-10 17:29N 69°38' E 017°60'0 0.0
2017-Nov-10 17:00N 69°38' E 017°60'0 0.0
2017-Nov-10 16:30N 69°38' E 017°60'0 0.0
2017-Nov-10 16:00N 69°38' E 017°60'0 0.0
2017-Nov-10 15:30N 69°38' E 017°60'0 0.0
2017-Nov-10 14:59N 69°38' E 017°60'0 0.0
2017-Nov-10 14:30N 69°38' E 017°60'0 0.0
2017-Nov-10 14:00N 69°38' E 017°60'0 0.0
2017-Nov-10 13:30N 69°38' E 017°60'0 0.0
2017-Nov-10 12:59N 69°38' E 017°60'0 0.0
2017-Nov-10 12:30N 69°38' E 017°60'0 0.0
2017-Nov-10 12:00N 69°38' E 017°60'0 0.0
2017-Nov-10 11:30N 69°38' E 017°60'0 0.0
2017-Nov-10 11:00N 69°38' E 017°60'0 0.0
2017-Nov-10 10:30N 69°38' E 017°60'0 0.0
2017-Nov-10 10:00N 69°38' E 017°60'0 0.0
2017-Nov-10 09:30N 69°38' E 017°60'0 0.0
2017-Nov-10 09:01N 69°38' E 017°60'0 0.0
2017-Nov-10 08:30N 69°38' E 017°60'0 0.0
2017-Nov-10 08:00N 69°38' E 017°60'0 0.0
2017-Nov-10 07:29N 69°38' E 017°60'0 0.0
2017-Nov-10 07:00N 69°38' E 017°60'0 0.0
2017-Nov-10 06:29N 69°38' E 017°60'0 0.0
2017-Nov-10 06:00N 69°38' E 017°60'0 0.0
2017-Nov-10 05:30N 69°38' E 017°60'0 0.0
2017-Nov-10 05:00N 69°38' E 017°60'0 0.0
2017-Nov-10 04:30N 69°38' E 017°60'0 0.0
2017-Nov-10 04:00N 69°38' E 017°60'0 0.0
2017-Nov-10 03:30N 69°38' E 017°60'0 0.0
2017-Nov-10 03:00N 69°38' E 017°60'0 0.0
2017-Nov-10 02:30N 69°38' E 017°60'0 0.0
2017-Nov-10 02:00N 69°38' E 017°60'0 0.0
2017-Nov-10 01:30N 69°38' E 017°60'0 0.0
2017-Nov-10 01:00N 69°38' E 017°60'0 0.0
2017-Nov-10 00:30N 69°38' E 017°60'0 0.0
2017-Nov-10 00:00N 69°38' E 017°60'0 0.0
2017-Nov-09 23:29N 69°38' E 017°60'0 0.0
2017-Nov-09 23:00N 69°38' E 017°60'0 0.0
2017-Nov-09 22:30N 69°38' E 017°60'0 0.0
2017-Nov-09 22:00N 69°38' E 017°60'0 0.0
2017-Nov-09 21:30N 69°38' E 017°60'0 0.0
2017-Nov-09 21:00N 69°38' E 017°60'0 0.0
2017-Nov-09 20:30N 69°38' E 017°60'0 0.0
2017-Nov-09 20:00N 69°38' E 017°60'0 0.0
2017-Nov-09 19:30N 69°38' E 017°60'0 0.0
2017-Nov-09 19:00N 69°38' E 017°60'0 0.0
2017-Nov-09 18:30N 69°38' E 017°60'0 0.0
2017-Nov-09 18:00N 69°38' E 017°60'0 0.0
2017-Nov-09 17:30N 69°38' E 017°60'0 0.0
2017-Nov-09 17:00N 69°38' E 017°60'0 0.0
2017-Nov-09 16:30N 69°38' E 017°60'0 0.0
2017-Nov-09 16:00N 69°38' E 017°60'0 0.0
2017-Nov-09 15:30N 69°38' E 017°60'0 0.0
2017-Nov-09 15:00N 69°38' E 017°60'0 0.0
2017-Nov-09 14:30N 69°38' E 017°60'0 0.0
2017-Nov-09 14:00N 69°38' E 017°60'0 0.0
2017-Nov-09 13:30N 69°38' E 017°60'0 0.0
2017-Nov-09 13:00N 69°38' E 017°60'0 0.0
2017-Nov-09 12:30N 69°38' E 017°60'0 0.0
2017-Nov-09 12:00N 69°38' E 017°60'0 0.0
2017-Nov-09 11:30N 69°38' E 017°60'0 0.0
2017-Nov-09 11:00N 69°38' E 017°60'0 0.0
2017-Nov-09 10:30N 69°38' E 017°60'0 0.0
2017-Nov-09 10:00N 69°38' E 017°60'0 0.0
2017-Nov-09 09:30N 69°38' E 017°60'0 0.0
2017-Nov-09 09:00N 69°38' E 017°60'0 0.0
2017-Nov-09 08:30N 69°38' E 017°60'0 0.0
2017-Nov-09 08:00N 69°38' E 017°60'0 0.0
2017-Nov-09 07:30N 69°38' E 017°60'0 0.0
2017-Nov-09 07:00N 69°38' E 017°60'0 0.0
2017-Nov-09 06:30N 69°38' E 017°60'0 0.0
2017-Nov-09 06:00N 69°38' E 017°60'0 0.0
2017-Nov-09 05:30N 69°38' E 017°60'0 0.0
2017-Nov-09 05:00N 69°38' E 017°60'0 0.0
2017-Nov-09 04:30N 69°38' E 017°60'0 0.0
2017-Nov-09 04:00N 69°38' E 017°60'0 0.0
2017-Nov-09 03:30N 69°38' E 017°60'0 0.0
2017-Nov-09 03:00N 69°38' E 017°60'0 0.0
2017-Nov-09 02:30N 69°38' E 017°60'0 0.0
2017-Nov-09 01:59N 69°38' E 017°60'0 0.0
2017-Nov-09 01:30N 69°38' E 017°60'0 0.0
2017-Nov-09 01:00N 69°38' E 017°60'0 0.0
2017-Nov-09 00:30N 69°38' E 017°60'0 0.0
2017-Nov-09 00:00N 69°38' E 017°60'0 0.0
2017-Nov-08 23:30N 69°38' E 017°60'0 0.0
2017-Nov-08 23:00N 69°38' E 017°60'0 0.0
2017-Nov-08 22:30N 69°38' E 017°60'0 0.0
2017-Nov-08 22:00N 69°38' E 017°60'0 0.0
2017-Nov-08 21:30N 69°38' E 017°60'0 0.0
2017-Nov-08 21:00N 69°38' E 017°60'0 0.0
2017-Nov-08 20:30N 69°38' E 017°60'0 0.0
2017-Nov-08 20:00N 69°38' E 017°60'0 0.0
2017-Nov-08 19:30N 69°38' E 017°60'0 0.0
2017-Nov-08 19:00N 69°38' E 017°60'0 0.0
2017-Nov-08 18:30N 69°38' E 017°60'0 0.0
2017-Nov-08 18:00N 69°38' E 017°60'0 0.0
2017-Nov-08 17:30N 69°38' E 017°60'0 0.0
2017-Nov-08 17:00N 69°38' E 017°60'0 0.0
2017-Nov-08 16:30N 69°38' E 017°60'0 0.0
2017-Nov-08 16:00N 69°38' E 017°60'0 0.0
2017-Nov-08 15:30N 69°38' E 017°60'0 0.0
2017-Nov-08 15:00N 69°38' E 017°60'0 0.0
2017-Nov-08 14:30N 69°38' E 017°60'0 0.0
2017-Nov-08 13:49N 69°38' E 017°60'0 0.0
2017-Nov-08 13:30N 69°38' E 017°60'0 0.0
2017-Nov-08 12:37N 69°38' E 017°60'0 0.0
2017-Nov-08 12:30N 69°38' E 017°60'0 0.0
2017-Nov-08 11:49N 69°38' E 017°60'0 0.0
2017-Nov-08 09:05N 69°38' E 017°60'0 0.0
2017-Nov-08 09:00N 69°38' E 017°60'0 0.0
2017-Nov-08 08:29N 69°38' E 017°60'0 0.0
2017-Nov-08 08:00N 69°38' E 017°60'0 0.0
2017-Nov-08 07:30N 69°38' E 017°60'0 0.0
2017-Nov-08 06:59N 69°38' E 017°60'0 0.0
2017-Nov-08 06:30N 69°38' E 017°60'0 0.0
2017-Nov-08 06:00N 69°38' E 017°60'0 0.0
2017-Nov-08 05:30N 69°38' E 017°60'0 0.0
2017-Nov-08 05:00N 69°38' E 017°60'0 0.0
2017-Nov-08 04:30N 69°38' E 017°60'0 0.0
2017-Nov-08 04:00N 69°38' E 017°60'0 0.0
2017-Nov-08 03:30N 69°38' E 017°60'0 0.0
2017-Nov-08 03:00N 69°38' E 017°60'0 0.0
2017-Nov-08 02:30N 69°38' E 017°60'0 0.0
2017-Nov-08 02:00N 69°38' E 017°60'0 0.0
2017-Nov-08 01:30N 69°38' E 017°60'0 0.0
2017-Nov-08 01:00N 69°38' E 017°60'0 0.0
2017-Nov-08 00:27N 69°38' E 017°60'0 0.0
2017-Nov-08 00:00N 69°38' E 017°60'0 0.0
2017-Nov-07 22:40N 69°38' E 017°60'0 0.0
2017-Nov-07 22:30N 69°38' E 017°60'0 0.0
2017-Nov-07 22:00N 69°38' E 017°60'0 0.0
2017-Nov-07 21:30N 69°38' E 017°60'0 0.0
2017-Nov-07 21:00N 69°38' E 017°60'0 0.0
2017-Nov-07 20:30N 69°38' E 017°60'0 0.0
2017-Nov-07 20:00N 69°38' E 017°60'0 0.0
2017-Nov-07 19:30N 69°38' E 017°60'0 0.0
2017-Nov-07 19:00N 69°38' E 017°60'0 0.0
2017-Nov-07 18:30N 69°38' E 017°60'0 0.0
2017-Nov-07 18:00N 69°38' E 017°60'0 0.0
2017-Nov-07 17:30N 69°38' E 017°60'0 0.0
2017-Nov-07 17:00N 69°38' E 017°60'0 0.0
2017-Nov-07 16:30N 69°38' E 017°60'0 0.0
2017-Nov-07 16:00N 69°38' E 017°60'0 0.0
2017-Nov-07 15:30N 69°38' E 017°60'0 0.0
2017-Nov-07 15:00N 69°38' E 017°60'0 0.0
2017-Nov-07 14:30N 69°38' E 017°60'0 0.0
2017-Nov-07 14:00N 69°38' E 017°60'0 0.0
2017-Nov-07 13:29N 69°38' E 017°60'0 0.0
2017-Nov-07 13:00N 69°38' E 017°60'0 0.0
2017-Nov-07 12:30N 69°38' E 017°60'0 0.0
2017-Nov-07 11:59N 69°38' E 017°60'0 0.0
2017-Nov-07 11:30N 69°38' E 017°60'0 0.0
2017-Nov-07 11:00N 69°38' E 017°60'0 0.0
2017-Nov-07 10:30N 69°38' E 017°60'0 0.0
2017-Nov-07 10:00N 69°38' E 017°60'0 0.0
2017-Nov-07 09:30N 69°38' E 017°60'0 0.0
2017-Nov-07 09:00N 69°38' E 017°60'0 0.0
2017-Nov-07 08:30N 69°38' E 017°60'0 0.0
2017-Nov-07 08:00N 69°38' E 017°60'0 0.0
2017-Nov-07 07:30N 69°38' E 017°60'0 0.0
2017-Nov-07 07:00N 69°38' E 017°60'0 0.0
2017-Nov-07 06:30N 69°38' E 017°60'0 0.0
2017-Nov-07 06:00N 69°38' E 017°60'0 0.0
2017-Nov-07 05:30N 69°38' E 017°60'0 0.0
2017-Nov-07 05:00N 69°38' E 017°60'0 0.0
2017-Nov-07 04:30N 69°38' E 017°60'0 0.0
2017-Nov-07 04:00N 69°38' E 017°60'0 0.0
2017-Nov-07 03:30N 69°38' E 017°60'0 0.0
2017-Nov-07 03:00N 69°38' E 017°60'0 0.0
2017-Nov-07 02:30N 69°38' E 017°60'0 0.0
2017-Nov-07 02:00N 69°38' E 017°60'0 0.0
2017-Nov-07 01:30N 69°38' E 017°60'0 0.0
2017-Nov-07 01:00N 69°38' E 017°60'0 0.0
2017-Nov-07 00:30N 69°38' E 017°60'0 0.0
2017-Nov-07 00:00N 69°38' E 017°60'0 0.0
2017-Nov-06 23:30N 69°38' E 017°60'0 0.0
2017-Nov-06 23:00N 69°38' E 017°60'0 0.0
2017-Nov-06 22:30N 69°38' E 017°60'0 0.0
2017-Nov-06 22:00N 69°38' E 017°60'0 0.0
2017-Nov-06 21:30N 69°38' E 017°60'0 0.0
2017-Nov-06 21:00N 69°38' E 017°60'0 0.0
2017-Nov-06 20:30N 69°38' E 017°60'  
Track history (hours):
 
Tides and Currents Weather Stations Pressure Air Temp Water Temp Dewpoint Dewpoint Depression Visibility Wind Speed Wind Dir Waves Ship Positions

Barsund

Last reported at 2017-Nov-16 09:05 UTC. Time now 2017-Dec-18 03:28 UTC.
Position N 68°55' E 015°04'.
Warning: this ship's position is 31 days out of date.

Length 20 m; draft 3.5 m.

Type: Fishing. MMSI: 257577500.

Date/timePositionNaut miles runAvg speedWind from/ knotsBaromVisibWave heightAir tempDewpointWater temp
2017-Nov-16 09:05N 68°55' E 015°04'0 0.0
2017-Nov-16 09:00N 68°55' E 015°04'0 0.0
2017-Nov-16 08:30N 68°55' E 015°04'0 0.0
2017-Nov-16 08:00N 68°55' E 015°04'0 0.0
2017-Nov-16 07:30N 68°55' E 015°04'0 0.0
2017-Nov-16 07:00N 68°55' E 015°04'0 0.0
2017-Nov-16 06:30N 68°55' E 015°04'0 0.0
2017-Nov-16 06:00N 68°55' E 015°04'0 0.0
2017-Nov-16 05:29N 68°55' E 015°04'0 0.0
2017-Nov-16 05:00N 68°55' E 015°04'0 0.0
2017-Nov-16 04:30N 68°55' E 015°04'0 0.0
2017-Nov-16 04:00N 68°55' E 015°04'0 0.0
2017-Nov-16 03:30N 68°55' E 015°04'0 0.0
2017-Nov-16 03:00N 68°55' E 015°04'0 0.0
2017-Nov-16 02:30N 68°55' E 015°04'0 0.0
2017-Nov-16 02:00N 68°55' E 015°04'0 0.0
2017-Nov-16 01:30N 68°55' E 015°04'0 0.0
2017-Nov-16 01:00N 68°55' E 015°04'0 0.0
2017-Nov-16 00:30N 68°55' E 015°04'0 0.0
2017-Nov-15 23:59N 68°55' E 015°04'0 0.0
2017-Nov-15 23:30N 68°55' E 015°04'0 0.0
2017-Nov-15 23:00N 68°55' E 015°04'0 0.0
2017-Nov-15 22:30N 68°55' E 015°04'0 0.0
2017-Nov-15 22:00N 68°55' E 015°04'0 0.0
2017-Nov-15 21:30N 68°55' E 015°04'0 0.0
2017-Nov-15 20:59N 68°55' E 015°04'0 0.0
2017-Nov-15 20:30N 68°55' E 015°04'0 0.0
2017-Nov-15 20:00N 68°55' E 015°04'0 0.0
2017-Nov-15 19:30N 68°55' E 015°04'0 0.0
2017-Nov-15 19:00N 68°55' E 015°04'0 0.0
2017-Nov-15 18:30N 68°55' E 015°04'0 0.0
2017-Nov-15 18:00N 68°55' E 015°04'0 0.0
2017-Nov-15 17:30N 68°55' E 015°04'0 0.0
2017-Nov-15 17:00N 68°55' E 015°04'0 0.0
2017-Nov-15 16:30N 68°55' E 015°04'0 0.0
2017-Nov-15 16:00N 68°55' E 015°04'0 0.0
2017-Nov-15 15:30N 68°55' E 015°04'0 0.0
2017-Nov-15 14:59N 68°55' E 015°04'0 0.0
2017-Nov-15 14:30N 68°55' E 015°04'0 0.0
2017-Nov-15 14:00N 68°55' E 015°04'0 0.0
2017-Nov-15 13:29N 68°55' E 015°04'0 0.0
2017-Nov-15 13:00N 68°55' E 015°04'0 0.0
2017-Nov-15 12:30N 68°55' E 015°04'0 0.0
2017-Nov-15 12:00N 68°55' E 015°04'0 0.0
2017-Nov-15 11:30N 68°55' E 015°04'0 0.0
2017-Nov-15 11:00N 68°55' E 015°04'0 0.0
2017-Nov-15 10:30N 68°55' E 015°04'0 0.0
2017-Nov-15 10:00N 68°55' E 015°04'0 0.0
2017-Nov-15 09:30N 68°55' E 015°04'0 0.0
2017-Nov-15 09:00N 68°55' E 015°04'0 0.2
2017-Nov-15 08:30N 68°55' E 015°04'0 0.4
2017-Nov-15 08:00N 68°55' E 015°05'0 0.0
2017-Nov-15 07:30N 68°55' E 015°05'0 0.0
2017-Nov-15 07:00N 68°55' E 015°05'0 0.0
2017-Nov-15 06:29N 68°55' E 015°05'0 0.0
2017-Nov-15 06:00N 68°55' E 015°05'0 0.0
2017-Nov-15 05:30N 68°55' E 015°05'0 0.0
2017-Nov-15 05:00N 68°55' E 015°05'0 0.0
2017-Nov-15 04:30N 68°55' E 015°05'0 0.0
2017-Nov-15 04:00N 68°55' E 015°05'0 0.0
2017-Nov-15 03:30N 68°55' E 015°05'0 0.0
2017-Nov-15 03:00N 68°55' E 015°05'0 0.0
2017-Nov-15 02:30N 68°55' E 015°05'0 0.0
2017-Nov-15 02:00N 68°55' E 015°05'0 0.0
2017-Nov-15 01:30N 68°55' E 015°05'0 0.0
2017-Nov-15 01:00N 68°55' E 015°05'0 0.0
2017-Nov-15 00:30N 68°55' E 015°05'0 0.0
2017-Nov-15 00:00N 68°55' E 015°05'0 0.0
2017-Nov-14 23:30N 68°55' E 015°05'0 0.0
2017-Nov-14 23:00N 68°55' E 015°05'0 0.0
2017-Nov-14 22:29N 68°55' E 015°05'0 0.0
2017-Nov-14 22:00N 68°55' E 015°05'0 0.0
2017-Nov-14 21:29N 68°55' E 015°05'3 6.9
2017-Nov-14 21:00N 68°57' E 014°59'3 6.4
2017-Nov-14 20:30N 69°00' E 015°02'4 7.1
2017-Nov-14 20:00N 69°01' E 015°12'4 7.9
2017-Nov-14 19:30N 68°58' E 015°18'4 8.0
2017-Nov-14 19:00N 68°55' E 015°23'4 8.1
2017-Nov-14 18:30N 68°51' E 015°26'4 8.3
2017-Nov-14 18:00N 68°47' E 015°25'5 9.1
2017-Nov-14 17:30N 68°42' E 015°26'2 3.9
2017-Nov-14 17:00N 68°40' E 015°25'4 8.8
2017-Nov-14 16:30N 68°37' E 015°17'4 8.6
2017-Nov-14 15:59N 68°33' E 015°10'4 8.3
2017-Nov-14 15:30N 68°29' E 015°13'4 8.1
2017-Nov-14 14:59N 68°25' E 015°08'4 7.5
2017-Nov-14 14:30N 68°22' E 015°03'4 8.2
2017-Nov-14 14:00N 68°19' E 014°55'4 8.1
2017-Nov-14 13:30N 68°17' E 014°48'4 8.2
2017-Nov-14 13:00N 68°14' E 014°40'2 3.7
2017-Nov-14 12:30N 68°14' E 014°35'0 0.0
2017-Nov-14 12:00N 68°14' E 014°35'0 0.0
2017-Nov-14 11:30N 68°14' E 014°35'0 0.0
2017-Nov-14 11:00N 68°14' E 014°35'0 0.0
2017-Nov-14 10:30N 68°14' E 014°35'0 0.0
2017-Nov-14 10:00N 68°14' E 014°35'0 0.0
2017-Nov-14 09:30N 68°14' E 014°35'0 0.0
2017-Nov-14 09:00N 68°14' E 014°35'0 0.0
2017-Nov-14 08:29N 68°14' E 014°35'0 0.0
2017-Nov-14 08:00N 68°14' E 014°35'0 0.0
2017-Nov-14 07:30N 68°14' E 014°35'0 0.0
2017-Nov-14 07:00N 68°14' E 014°35'0 0.0
2017-Nov-14 06:30N 68°14' E 014°35'1 1.5
2017-Nov-14 06:00N 68°14' E 014°36'4 8.6
2017-Nov-14 05:30N 68°13' E 014°48'4 9.0
2017-Nov-14 05:00N 68°13' E 014°60'4 9.0
2017-Nov-14 04:30N 68°14' E 015°12'5 9.1
2017-Nov-14 04:00N 68°15' E 015°23'4 8.9
2017-Nov-14 03:30N 68°16' E 015°35'5 9.2
2017-Nov-14 03:00N 68°19' E 015°45'5 9.4
2017-Nov-14 02:30N 68°21' E 015°56'5 9.0
2017-Nov-14 02:00N 68°25' E 016°03'4 9.0
2017-Nov-14 01:30N 68°29' E 016°07'5 9.0
2017-Nov-14 01:00N 68°33' E 016°14'4 9.0
2017-Nov-14 00:30N 68°33' E 016°26'4 7.4
2017-Nov-14 00:00N 68°36' E 016°33'4 8.2
2017-Nov-13 23:30N 68°40' E 016°38'4 8.7
2017-Nov-13 23:00N 68°44' E 016°44'4 8.4
2017-Nov-13 22:30N 68°47' E 016°50'4 8.8
2017-Nov-13 22:00N 68°51' E 016°56'52 2.6
2017-Nov-13 02:00N 69°38' E 017°60'0 0.0
2017-Nov-13 01:30N 69°38' E 017°60'0 0.0
2017-Nov-13 01:00N 69°38' E 017°60'0 0.0
2017-Nov-13 00:30N 69°38' E 017°60'0 0.0
2017-Nov-13 00:00N 69°38' E 017°60'0 0.0
2017-Nov-12 23:30N 69°38' E 017°60'0 0.0
2017-Nov-12 23:00N 69°38' E 017°60'0 0.0
2017-Nov-12 22:29N 69°38' E 017°60'0 0.0
2017-Nov-12 22:00N 69°38' E 017°60'0 0.0
2017-Nov-12 21:30N 69°38' E 017°60'0 0.0
2017-Nov-12 21:00N 69°38' E 017°60'0 0.0
2017-Nov-12 20:30N 69°38' E 017°60'0 0.0
2017-Nov-12 20:00N 69°38' E 017°60'0 0.0
2017-Nov-12 19:30N 69°38' E 017°60'0 0.0
2017-Nov-12 19:00N 69°38' E 017°60'0 0.0
2017-Nov-12 18:30N 69°38' E 017°60'0 0.0
2017-Nov-12 18:00N 69°38' E 017°60'0 0.0
2017-Nov-12 17:29N 69°38' E 017°60'0 0.0
2017-Nov-12 17:00N 69°38' E 017°60'0 0.0
2017-Nov-12 16:30N 69°38' E 017°60'0 0.0
2017-Nov-12 16:00N 69°38' E 017°60'0 0.0
2017-Nov-12 15:30N 69°38' E 017°60'0 0.0
2017-Nov-12 15:00N 69°38' E 017°60'0 0.0
2017-Nov-12 14:30N 69°38' E 017°60'0 0.0
2017-Nov-12 14:00N 69°38' E 017°60'0 0.0
2017-Nov-12 13:30N 69°38' E 017°60'0 0.0
2017-Nov-12 13:00N 69°38' E 017°60'0 0.0
2017-Nov-12 12:30N 69°38' E 017°60'0 0.0
2017-Nov-12 12:00N 69°38' E 017°60'0 0.0
2017-Nov-12 11:30N 69°38' E 017°60'0 0.0
2017-Nov-12 11:00N 69°38' E 017°60'0 0.0
2017-Nov-12 10:30N 69°38' E 017°60'0 0.0
2017-Nov-12 10:00N 69°38' E 017°60'0 0.0
2017-Nov-12 09:30N 69°38' E 017°60'0 0.0
2017-Nov-12 09:00N 69°38' E 017°60'0 0.0
2017-Nov-12 08:30N 69°38' E 017°60'0 0.0
2017-Nov-12 08:00N 69°38' E 017°60'0 0.0
2017-Nov-12 07:30N 69°38' E 017°60'0 0.0
2017-Nov-12 07:00N 69°38' E 017°60'0 0.0
2017-Nov-12 06:30N 69°38' E 017°60'0 0.0
2017-Nov-12 06:00N 69°38' E 017°60'0 0.0
2017-Nov-12 05:29N 69°38' E 017°60'0 0.0
2017-Nov-12 05:00N 69°38' E 017°60'0 0.0
2017-Nov-12 04:30N 69°38' E 017°60'0 0.0
2017-Nov-12 04:00N 69°38' E 017°60'0 0.0
2017-Nov-12 03:30N 69°38' E 017°60'0 0.0
2017-Nov-12 03:00N 69°38' E 017°60'0 0.0
2017-Nov-12 02:30N 69°38' E 017°60'0 0.0
2017-Nov-12 02:00N 69°38' E 017°60'0 0.0
2017-Nov-12 01:30N 69°38' E 017°60'0 0.0
2017-Nov-12 00:59N 69°38' E 017°60'0 0.0
2017-Nov-12 00:30N 69°38' E 017°60'0 0.0
2017-Nov-12 00:00N 69°38' E 017°60'0 0.0
2017-Nov-11 23:30N 69°38' E 017°60'0 0.0
2017-Nov-11 23:00N 69°38' E 017°60'0 0.0
2017-Nov-11 22:30N 69°38' E 017°60'0 0.0
2017-Nov-11 22:00N 69°38' E 017°60'0 0.0
2017-Nov-11 21:30N 69°38' E 017°60'0 0.0
2017-Nov-11 21:00N 69°38' E 017°60'0 0.0
2017-Nov-11 20:30N 69°38' E 017°60'0 0.0
2017-Nov-11 20:00N 69°38' E 017°60'0 0.0
2017-Nov-11 19:30N 69°38' E 017°60'0 0.0
2017-Nov-11 19:00N 69°38' E 017°60'0 0.0
2017-Nov-11 18:30N 69°38' E 017°60'0 0.0
2017-Nov-11 18:00N 69°38' E 017°60'0 0.0
2017-Nov-11 17:30N 69°38' E 017°60'0 0.0
2017-Nov-11 17:00N 69°38' E 017°60'0 0.0
2017-Nov-11 16:30N 69°38' E 017°60'0 0.0
2017-Nov-11 16:00N 69°38' E 017°60'0 0.0
2017-Nov-11 15:30N 69°38' E 017°60'0 0.0
2017-Nov-11 15:00N 69°38' E 017°60'0 0.0
2017-Nov-11 14:30N 69°38' E 017°60'0 0.0
2017-Nov-11 14:00N 69°38' E 017°60'0 0.0
2017-Nov-11 13:30N 69°38' E 017°60'0 0.0
2017-Nov-11 13:00N 69°38' E 017°60'0 0.0
2017-Nov-11 12:30N 69°38' E 017°60'0 0.0
2017-Nov-11 12:00N 69°38' E 017°60'0 0.0
2017-Nov-11 11:30N 69°38' E 017°60'0 0.0
2017-Nov-11 11:00N 69°38' E 017°60'0 0.0
2017-Nov-11 10:30N 69°38' E 017°60'0 0.0
2017-Nov-11 10:00N 69°38' E 017°60'0 0.0
2017-Nov-11 09:30N 69°38' E 017°60'0 0.0
2017-Nov-11 08:59N 69°38' E 017°60'0 0.0
2017-Nov-11 08:30N 69°38' E 017°60'0 0.0
2017-Nov-11 08:00N 69°38' E 017°60'0 0.0
2017-Nov-11 07:30N 69°38' E 017°60'0 0.0
2017-Nov-11 06:59N 69°38' E 017°60'0 0.0
2017-Nov-11 06:30N 69°38' E 017°60'0 0.0
2017-Nov-11 06:00N 69°38' E 017°60'0 0.0
2017-Nov-11 05:30N 69°38' E 017°60'0 0.0
2017-Nov-11 05:00N 69°38' E 017°60'0 0.0
2017-Nov-11 04:30N 69°38' E 017°60'0 0.0
2017-Nov-11 04:00N 69°38' E 017°60'0 0.0
2017-Nov-11 03:30N 69°38' E 017°60'0 0.0
2017-Nov-11 03:00N 69°38' E 017°60'0 0.0
2017-Nov-11 02:30N 69°38' E 017°60'0 0.0
2017-Nov-11 02:00N 69°38' E 017°60'0 0.0
2017-Nov-11 01:30N 69°38' E 017°60'0 0.0
2017-Nov-11 01:00N 69°38' E 017°60'0 0.0
2017-Nov-11 00:30N 69°38' E 017°60'0 0.0
2017-Nov-11 00:00N 69°38' E 017°60'0 0.0
2017-Nov-10 23:30N 69°38' E 017°60'0 0.0
2017-Nov-10 23:00N 69°38' E 017°60'0 0.0
2017-Nov-10 22:30N 69°38' E 017°60'0 0.0
2017-Nov-10 22:00N 69°38' E 017°60'0 0.0
2017-Nov-10 21:30N 69°38' E 017°60'0 0.0
2017-Nov-10 21:00N 69°38' E 017°60'0 0.0
2017-Nov-10 20:30N 69°38' E 017°60'0 0.0
2017-Nov-10 20:00N 69°38' E 017°60'0 0.0
2017-Nov-10 19:29N 69°38' E 017°60'0 0.0
2017-Nov-10 19:00N 69°38' E 017°60'0 0.0
2017-Nov-10 18:30N 69°38' E 017°60'0 0.0
2017-Nov-10 18:00N 69°38' E 017°60'0 0.0
2017-Nov-10 17:29N 69°38' E 017°60'0 0.0
2017-Nov-10 17:00N 69°38' E 017°60'0 0.0
2017-Nov-10 16:30N 69°38' E 017°60'0 0.0
2017-Nov-10 16:00N 69°38' E 017°60'0 0.0
2017-Nov-10 15:30N 69°38' E 017°60'0 0.0
2017-Nov-10 14:59N 69°38' E 017°60'0 0.0
2017-Nov-10 14:30N 69°38' E 017°60'0 0.0
2017-Nov-10 14:00N 69°38' E 017°60'0 0.0
2017-Nov-10 13:30N 69°38' E 017°60'0 0.0
2017-Nov-10 12:59N 69°38' E 017°60'0 0.0
2017-Nov-10 12:30N 69°38' E 017°60'0 0.0
2017-Nov-10 12:00N 69°38' E 017°60'0 0.0
2017-Nov-10 11:30N 69°38' E 017°60'0 0.0
2017-Nov-10 11:00N 69°38' E 017°60'0 0.0
2017-Nov-10 10:30N 69°38' E 017°60'0 0.0
2017-Nov-10 10:00N 69°38' E 017°60'0 0.0
2017-Nov-10 09:30N 69°38' E 017°60'0 0.0
2017-Nov-10 09:01N 69°38' E 017°60'0 0.0
2017-Nov-10 08:30N 69°38' E 017°60'0 0.0
2017-Nov-10 08:00N 69°38' E 017°60'0 0.0
2017-Nov-10 07:29N 69°38' E 017°60'0 0.0
2017-Nov-10 07:00N 69°38' E 017°60'0 0.0
2017-Nov-10 06:29N 69°38' E 017°60'0 0.0
2017-Nov-10 06:00N 69°38' E 017°60'0 0.0
2017-Nov-10 05:30N 69°38' E 017°60'0 0.0
2017-Nov-10 05:00N 69°38' E 017°60'0 0.0
2017-Nov-10 04:30N 69°38' E 017°60'0 0.0
2017-Nov-10 04:00N 69°38' E 017°60'0 0.0
2017-Nov-10 03:30N 69°38' E 017°60'0 0.0
2017-Nov-10 03:00N 69°38' E 017°60'0 0.0
2017-Nov-10 02:30N 69°38' E 017°60'0 0.0
2017-Nov-10 02:00N 69°38' E 017°60'0 0.0
2017-Nov-10 01:30N 69°38' E 017°60'0 0.0
2017-Nov-10 01:00N 69°38' E 017°60'0 0.0
2017-Nov-10 00:30N 69°38' E 017°60'0 0.0
2017-Nov-10 00:00N 69°38' E 017°60'0 0.0
2017-Nov-09 23:29N 69°38' E 017°60'0 0.0
2017-Nov-09 23:00N 69°38' E 017°60'0 0.0
2017-Nov-09 22:30N 69°38' E 017°60'0 0.0
2017-Nov-09 22:00N 69°38' E 017°60'0 0.0
2017-Nov-09 21:30N 69°38' E 017°60'0 0.0
2017-Nov-09 21:00N 69°38' E 017°60'0 0.0
2017-Nov-09 20:30N 69°38' E 017°60'0 0.0
2017-Nov-09 20:00N 69°38' E 017°60'0 0.0
2017-Nov-09 19:30N 69°38' E 017°60'0 0.0
2017-Nov-09 19:00N 69°38' E 017°60'0 0.0
2017-Nov-09 18:30N 69°38' E 017°60'0 0.0
2017-Nov-09 18:00N 69°38' E 017°60'0 0.0
2017-Nov-09 17:30N 69°38' E 017°60'0 0.0
2017-Nov-09 17:00N 69°38' E 017°60'0 0.0
2017-Nov-09 16:30N 69°38' E 017°60'0 0.0
2017-Nov-09 16:00N 69°38' E 017°60'0 0.0
2017-Nov-09 15:30N 69°38' E 017°60'0 0.0
2017-Nov-09 15:00N 69°38' E 017°60'0 0.0
2017-Nov-09 14:30N 69°38' E 017°60'0 0.0
2017-Nov-09 14:00N 69°38' E 017°60'0 0.0
2017-Nov-09 13:30N 69°38' E 017°60'0 0.0
2017-Nov-09 13:00N 69°38' E 017°60'0 0.0
2017-Nov-09 12:30N 69°38' E 017°60'0 0.0
2017-Nov-09 12:00N 69°38' E 017°60'0 0.0
2017-Nov-09 11:30N 69°38' E 017°60'0 0.0
2017-Nov-09 11:00N 69°38' E 017°60'0 0.0
2017-Nov-09 10:30N 69°38' E 017°60'0 0.0
2017-Nov-09 10:00N 69°38' E 017°60'0 0.0
2017-Nov-09 09:30N 69°38' E 017°60'0 0.0
2017-Nov-09 09:00N 69°38' E 017°60'0 0.0
2017-Nov-09 08:30N 69°38' E 017°60'0 0.0
2017-Nov-09 08:00N 69°38' E 017°60'0 0.0
2017-Nov-09 07:30N 69°38' E 017°60'0 0.0
2017-Nov-09 07:00N 69°38' E 017°60'0 0.0
2017-Nov-09 06:30N 69°38' E 017°60'0 0.0
2017-Nov-09 06:00N 69°38' E 017°60'0 0.0
2017-Nov-09 05:30N 69°38' E 017°60'0 0.0
2017-Nov-09 05:00N 69°38' E 017°60'0 0.0
2017-Nov-09 04:30N 69°38' E 017°60'0 0.0
2017-Nov-09 04:00N 69°38' E 017°60'0 0.0
2017-Nov-09 03:30N 69°38' E 017°60'0 0.0
2017-Nov-09 03:00N 69°38' E 017°60'0 0.0
2017-Nov-09 02:30N 69°38' E 017°60'0 0.0
2017-Nov-09 01:59N 69°38' E 017°60'0 0.0
2017-Nov-09 01:30N 69°38' E 017°60'0 0.0
2017-Nov-09 01:00N 69°38' E 017°60'0 0.0
2017-Nov-09 00:30N 69°38' E 017°60'0 0.0
2017-Nov-09 00:00N 69°38' E 017°60'0 0.0
2017-Nov-08 23:30N 69°38' E 017°60'0 0.0
2017-Nov-08 23:00N 69°38' E 017°60'0 0.0
2017-Nov-08 22:30N 69°38' E 017°60'0 0.0
2017-Nov-08 22:00N 69°38' E 017°60'0 0.0
2017-Nov-08 21:30N 69°38' E 017°60'0 0.0
2017-Nov-08 21:00N 69°38' E 017°60'0 0.0
2017-Nov-08 20:30N 69°38' E 017°60'0 0.0
2017-Nov-08 20:00N 69°38' E 017°60'0 0.0
2017-Nov-08 19:30N 69°38' E 017°60'0 0.0
2017-Nov-08 19:00N 69°38' E 017°60'0 0.0
2017-Nov-08 18:30N 69°38' E 017°60'0 0.0
2017-Nov-08 18:00N 69°38' E 017°60'0 0.0
2017-Nov-08 17:30N 69°38' E 017°60'0 0.0
2017-Nov-08 17:00N 69°38' E 017°60'0 0.0
2017-Nov-08 16:30N 69°38' E 017°60'0 0.0
2017-Nov-08 16:00N 69°38' E 017°60'0 0.0
2017-Nov-08 15:30N 69°38' E 017°60'0 0.0
2017-Nov-08 15:00N 69°38' E 017°60'0 0.0
2017-Nov-08 14:30N 69°38' E 017°60'0 0.0
2017-Nov-08 13:49N 69°38' E 017°60'0 0.0
2017-Nov-08 13:30N 69°38' E 017°60'0 0.0
2017-Nov-08 12:37N 69°38' E 017°60'0 0.0
2017-Nov-08 12:30N 69°38' E 017°60'0 0.0
2017-Nov-08 11:49N 69°38' E 017°60'0 0.0
2017-Nov-08 09:05N 69°38' E 017°60'0 0.0
2017-Nov-08 09:00N 69°38' E 017°60'0 0.0
2017-Nov-08 08:29N 69°38' E 017°60'0 0.0
2017-Nov-08 08:00N 69°38' E 017°60'0 0.0
2017-Nov-08 07:30N 69°38' E 017°60'0 0.0
2017-Nov-08 06:59N 69°38' E 017°60'0 0.0
2017-Nov-08 06:30N 69°38' E 017°60'0 0.0
2017-Nov-08 06:00N 69°38' E 017°60'0 0.0
2017-Nov-08 05:30N 69°38' E 017°60'0 0.0
2017-Nov-08 05:00N 69°38' E 017°60'0 0.0
2017-Nov-08 04:30N 69°38' E 017°60'0 0.0
2017-Nov-08 04:00N 69°38' E 017°60'0 0.0
2017-Nov-08 03:30N 69°38' E 017°60'0 0.0
2017-Nov-08 03:00N 69°38' E 017°60'0 0.0
2017-Nov-08 02:30N 69°38' E 017°60'0 0.0
2017-Nov-08 02:00N 69°38' E 017°60'0 0.0
2017-Nov-08 01:30N 69°38' E 017°60'0 0.0
2017-Nov-08 01:00N 69°38' E 017°60'0 0.0
2017-Nov-08 00:27N 69°38' E 017°60'0 0.0
2017-Nov-08 00:00N 69°38' E 017°60'0 0.0
2017-Nov-07 22:40N 69°38' E 017°60'0 0.0
2017-Nov-07 22:30N 69°38' E 017°60'0 0.0
2017-Nov-07 22:00N 69°38' E 017°60'0 0.0
2017-Nov-07 21:30N 69°38' E 017°60'0 0.0
2017-Nov-07 21:00N 69°38' E 017°60'0 0.0
2017-Nov-07 20:30N 69°38' E 017°60'0 0.0
2017-Nov-07 20:00N 69°38' E 017°60'0 0.0
2017-Nov-07 19:30N 69°38' E 017°60'0 0.0
2017-Nov-07 19:00N 69°38' E 017°60'0 0.0
2017-Nov-07 18:30N 69°38' E 017°60'0 0.0
2017-Nov-07 18:00N 69°38' E 017°60'0 0.0
2017-Nov-07 17:30N 69°38' E 017°60'0 0.0
2017-Nov-07 17:00N 69°38' E 017°60'0 0.0
2017-Nov-07 16:30N 69°38' E 017°60'0 0.0
2017-Nov-07 16:00N 69°38' E 017°60'0 0.0
2017-Nov-07 15:30N 69°38' E 017°60'0 0.0
2017-Nov-07 15:00N 69°38' E 017°60'0 0.0
2017-Nov-07 14:30N 69°38' E 017°60'0 0.0
2017-Nov-07 14:00N 69°38' E 017°60'0 0.0
2017-Nov-07 13:29N 69°38' E 017°60'0 0.0
2017-Nov-07 13:00N 69°38' E 017°60'0 0.0
2017-Nov-07 12:30N 69°38' E 017°60'0 0.0
2017-Nov-07 11:59N 69°38' E 017°60'0 0.0
2017-Nov-07 11:30N 69°38' E 017°60'0 0.0
2017-Nov-07 11:00N 69°38' E 017°60'0 0.0
2017-Nov-07 10:30N 69°38' E 017°60'0 0.0
2017-Nov-07 10:00N 69°38' E 017°60'0 0.0
2017-Nov-07 09:30N 69°38' E 017°60'0 0.0
2017-Nov-07 09:00N 69°38' E 017°60'0 0.0
2017-Nov-07 08:30N 69°38' E 017°60'0 0.0
2017-Nov-07 08:00N 69°38' E 017°60'0 0.0
2017-Nov-07 07:30N 69°38' E 017°60'0 0.0
2017-Nov-07 07:00N 69°38' E 017°60'0 0.0
2017-Nov-07 06:30N 69°38' E 017°60'0 0.0
2017-Nov-07 06:00N 69°38' E 017°60'0 0.0
2017-Nov-07 05:30N 69°38' E 017°60'0 0.0
2017-Nov-07 05:00N 69°38' E 017°60'0 0.0
2017-Nov-07 04:30N 69°38' E 017°60'0 0.0
2017-Nov-07 04:00N 69°38' E 017°60'0 0.0
2017-Nov-07 03:30N 69°38' E 017°60'0 0.0
2017-Nov-07 03:00N 69°38' E 017°60'0 0.0
2017-Nov-07 02:30N 69°38' E 017°60'0 0.0
2017-Nov-07 02:00N 69°38' E 017°60'0 0.0
2017-Nov-07 01:30N 69°38' E 017°60'0 0.0
2017-Nov-07 01:00N 69°38' E 017°60'0 0.0
2017-Nov-07 00:30N 69°38' E 017°60'0 0.0
2017-Nov-07 00:00N 69°38' E 017°60'0 0.0
2017-Nov-06 23:30N 69°38' E 017°60'0 0.0
2017-Nov-06 23:00N 69°38' E 017°60'0 0.0
2017-Nov-06 22:30N 69°38' E 017°60'0 0.0
2017-Nov-06 22:00N 69°38' E 017°60'0 0.0
2017-Nov-06 21:30N 69°38' E 017°60'0 0.0
2017-Nov-06 21:00N 69°38' E 017°60'0 0.0
2017-Nov-06 20:30N 69°38' E 017°60'  

Dump ship's entire track history